sensor_id;sensor_type;location;lat;lon;timestamp;P1;durP1;ratioP1;P2;durP2;ratioP2
70126;SDS011;57491;42.694;23.314;2023-12-04T00:01:15;10.20;;;5.07;;
70126;SDS011;57491;42.694;23.314;2023-12-04T00:03:43;8.35;;;3.95;;
70126;SDS011;57491;42.694;23.314;2023-12-04T00:06:10;9.37;;;5.63;;
70126;SDS011;57491;42.694;23.314;2023-12-04T00:11:07;11.13;;;5.88;;
70126;SDS011;57491;42.694;23.314;2023-12-04T00:13:35;11.95;;;6.20;;
70126;SDS011;57491;42.694;23.314;2023-12-04T00:16:02;12.63;;;6.93;;
70126;SDS011;57491;42.694;23.314;2023-12-04T00:18:30;9.43;;;6.15;;
70126;SDS011;57491;42.694;23.314;2023-12-04T00:20:57;8.70;;;5.90;;
70126;SDS011;57491;42.694;23.314;2023-12-04T00:23:25;9.35;;;5.22;;
70126;SDS011;57491;42.694;23.314;2023-12-04T00:25:53;9.20;;;5.87;;
70126;SDS011;57491;42.694;23.314;2023-12-04T00:28:22;11.48;;;5.50;;
70126;SDS011;57491;42.694;23.314;2023-12-04T00:30:50;11.25;;;6.07;;
70126;SDS011;57491;42.694;23.314;2023-12-04T00:33:17;9.27;;;5.80;;
70126;SDS011;57491;42.694;23.314;2023-12-04T00:35:44;11.93;;;6.27;;
70126;SDS011;57491;42.694;23.314;2023-12-04T00:38:11;9.30;;;6.10;;
70126;SDS011;57491;42.694;23.314;2023-12-04T00:40:39;11.80;;;6.30;;
70126;SDS011;57491;42.694;23.314;2023-12-04T00:43:06;9.03;;;6.00;;
70126;SDS011;57491;42.694;23.314;2023-12-04T00:45:35;9.07;;;6.18;;
70126;SDS011;57491;42.694;23.314;2023-12-04T00:48:02;10.02;;;5.78;;
70126;SDS011;57491;42.694;23.314;2023-12-04T00:50:30;9.35;;;5.63;;
70126;SDS011;57491;42.694;23.314;2023-12-04T00:52:57;12.18;;;6.53;;
70126;SDS011;57491;42.694;23.314;2023-12-04T00:55:24;9.37;;;6.00;;
70126;SDS011;57491;42.694;23.314;2023-12-04T00:57:51;6.37;;;4.57;;
70126;SDS011;57491;42.694;23.314;2023-12-04T01:00:18;11.05;;;6.28;;
70126;SDS011;57491;42.694;23.314;2023-12-04T01:02:47;8.52;;;5.75;;
70126;SDS011;57491;42.694;23.314;2023-12-04T01:05:15;9.27;;;5.18;;
70126;SDS011;57491;42.694;23.314;2023-12-04T01:07:42;11.23;;;6.33;;
70126;SDS011;57491;42.694;23.314;2023-12-04T01:10:09;10.55;;;6.20;;
70126;SDS011;57491;42.694;23.314;2023-12-04T01:12:37;13.37;;;6.73;;
70126;SDS011;57491;42.694;23.314;2023-12-04T01:15:04;10.77;;;6.07;;
70126;SDS011;57491;42.694;23.314;2023-12-04T01:20:01;10.07;;;5.43;;
70126;SDS011;57491;42.694;23.314;2023-12-04T01:22:28;10.80;;;5.75;;
70126;SDS011;57491;42.694;23.314;2023-12-04T01:24:55;8.87;;;5.97;;
70126;SDS011;57491;42.694;23.314;2023-12-04T01:27:23;10.32;;;5.90;;
70126;SDS011;57491;42.694;23.314;2023-12-04T01:29:51;10.20;;;4.80;;
70126;SDS011;57491;42.694;23.314;2023-12-04T01:32:18;9.48;;;5.93;;
70126;SDS011;57491;42.694;23.314;2023-12-04T01:34:45;10.90;;;5.55;;
70126;SDS011;57491;42.694;23.314;2023-12-04T01:37:14;12.13;;;5.80;;
70126;SDS011;57491;42.694;23.314;2023-12-04T01:39:41;9.13;;;6.13;;
70126;SDS011;57491;42.694;23.314;2023-12-04T01:42:09;10.83;;;6.70;;
70126;SDS011;57491;42.694;23.314;2023-12-04T01:44:37;12.63;;;6.05;;
70126;SDS011;57491;42.694;23.314;2023-12-04T01:47:04;11.48;;;5.90;;
70126;SDS011;57491;42.694;23.314;2023-12-04T01:51:59;12.07;;;6.53;;
70126;SDS011;57491;42.694;23.314;2023-12-04T01:54:29;9.15;;;5.68;;
70126;SDS011;57491;42.694;23.314;2023-12-04T01:56:58;10.13;;;5.38;;
70126;SDS011;57491;42.694;23.314;2023-12-04T01:59:25;7.60;;;5.30;;
70126;SDS011;57491;42.694;23.314;2023-12-04T02:01:52;8.30;;;6.38;;
70126;SDS011;57491;42.694;23.314;2023-12-04T02:04:20;13.32;;;5.35;;
70126;SDS011;57491;42.694;23.314;2023-12-04T02:06:48;9.68;;;6.05;;
70126;SDS011;57491;42.694;23.314;2023-12-04T02:09:15;9.65;;;5.38;;
70126;SDS011;57491;42.694;23.314;2023-12-04T02:11:44;10.38;;;5.40;;
70126;SDS011;57491;42.694;23.314;2023-12-04T02:14:11;10.63;;;5.53;;
70126;SDS011;57491;42.694;23.314;2023-12-04T02:16:40;10.60;;;5.53;;
70126;SDS011;57491;42.694;23.314;2023-12-04T02:19:09;12.40;;;6.45;;
70126;SDS011;57491;42.694;23.314;2023-12-04T02:21:39;14.02;;;6.35;;
70126;SDS011;57491;42.694;23.314;2023-12-04T02:24:07;10.05;;;6.07;;
70126;SDS011;57491;42.694;23.314;2023-12-04T02:26:37;11.30;;;5.90;;
70126;SDS011;57491;42.694;23.314;2023-12-04T02:29:11;8.88;;;5.90;;
70126;SDS011;57491;42.694;23.314;2023-12-04T02:31:44;11.93;;;6.60;;
70126;SDS011;57491;42.694;23.314;2023-12-04T02:34:13;9.00;;;6.18;;
70126;SDS011;57491;42.694;23.314;2023-12-04T02:36:42;13.43;;;6.40;;
70126;SDS011;57491;42.694;23.314;2023-12-04T02:39:12;10.50;;;5.60;;
70126;SDS011;57491;42.694;23.314;2023-12-04T02:41:40;12.60;;;5.93;;
70126;SDS011;57491;42.694;23.314;2023-12-04T02:44:07;10.32;;;6.22;;
70126;SDS011;57491;42.694;23.314;2023-12-04T02:46:34;7.50;;;4.68;;
70126;SDS011;57491;42.694;23.314;2023-12-04T02:49:02;10.98;;;6.03;;
70126;SDS011;57491;42.694;23.314;2023-12-04T02:51:29;8.88;;;5.60;;
70126;SDS011;57491;42.694;23.314;2023-12-04T02:53:56;10.77;;;6.00;;
70126;SDS011;57491;42.694;23.314;2023-12-04T02:56:25;11.77;;;6.40;;
70126;SDS011;57491;42.694;23.314;2023-12-04T02:58:52;9.95;;;5.75;;
70126;SDS011;57491;42.694;23.314;2023-12-04T03:01:19;9.82;;;5.85;;
70126;SDS011;57491;42.694;23.314;2023-12-04T03:03:47;8.38;;;4.68;;
70126;SDS011;57491;42.694;23.314;2023-12-04T03:06:14;8.88;;;5.95;;
70126;SDS011;57491;42.694;23.314;2023-12-04T03:11:09;9.70;;;5.17;;
70126;SDS011;57491;42.694;23.314;2023-12-04T03:13:38;9.95;;;5.75;;
70126;SDS011;57491;42.694;23.314;2023-12-04T03:16:05;11.65;;;6.18;;
70126;SDS011;57491;42.694;23.314;2023-12-04T03:18:41;8.90;;;5.57;;
70126;SDS011;57491;42.694;23.314;2023-12-04T03:21:08;9.43;;;4.10;;
70126;SDS011;57491;42.694;23.314;2023-12-04T03:23:36;11.40;;;6.65;;
70126;SDS011;57491;42.694;23.314;2023-12-04T03:26:03;8.60;;;5.63;;
70126;SDS011;57491;42.694;23.314;2023-12-04T03:28:31;12.93;;;5.70;;
70126;SDS011;57491;42.694;23.314;2023-12-04T03:30:59;9.93;;;5.80;;
70126;SDS011;57491;42.694;23.314;2023-12-04T03:33:27;8.93;;;5.65;;
70126;SDS011;57491;42.694;23.314;2023-12-04T03:35:54;10.25;;;5.78;;
70126;SDS011;57491;42.694;23.314;2023-12-04T03:38:21;9.70;;;5.88;;
70126;SDS011;57491;42.694;23.314;2023-12-04T03:40:49;11.07;;;6.03;;
70126;SDS011;57491;42.694;23.314;2023-12-04T03:43:16;9.00;;;5.55;;
70126;SDS011;57491;42.694;23.314;2023-12-04T03:45:43;9.90;;;6.65;;
70126;SDS011;57491;42.694;23.314;2023-12-04T03:48:12;13.00;;;6.28;;
70126;SDS011;57491;42.694;23.314;2023-12-04T03:50:39;12.50;;;6.63;;
70126;SDS011;57491;42.694;23.314;2023-12-04T03:53:06;8.75;;;5.47;;
70126;SDS011;57491;42.694;23.314;2023-12-04T03:55:34;9.57;;;5.72;;
70126;SDS011;57491;42.694;23.314;2023-12-04T03:58:01;9.93;;;6.23;;
70126;SDS011;57491;42.694;23.314;2023-12-04T04:00:28;10.27;;;5.78;;
70126;SDS011;57491;42.694;23.314;2023-12-04T04:02:55;9.27;;;5.35;;
70126;SDS011;57491;42.694;23.314;2023-12-04T04:05:24;8.13;;;5.15;;
70126;SDS011;57491;42.694;23.314;2023-12-04T04:07:51;8.52;;;5.95;;
70126;SDS011;57491;42.694;23.314;2023-12-04T04:10:18;13.37;;;6.20;;
70126;SDS011;57491;42.694;23.314;2023-12-04T04:12:46;9.05;;;4.57;;
70126;SDS011;57491;42.694;23.314;2023-12-04T04:15:13;9.48;;;5.18;;
70126;SDS011;57491;42.694;23.314;2023-12-04T04:17:40;9.68;;;5.35;;
70126;SDS011;57491;42.694;23.314;2023-12-04T04:20:08;10.18;;;5.63;;
70126;SDS011;57491;42.694;23.314;2023-12-04T04:22:39;9.80;;;5.50;;
70126;SDS011;57491;42.694;23.314;2023-12-04T04:25:06;9.15;;;5.90;;
70126;SDS011;57491;42.694;23.314;2023-12-04T04:27:34;9.30;;;5.15;;
70126;SDS011;57491;42.694;23.314;2023-12-04T04:30:02;9.73;;;5.82;;
70126;SDS011;57491;42.694;23.314;2023-12-04T04:32:30;10.38;;;6.03;;
70126;SDS011;57491;42.694;23.314;2023-12-04T04:34:58;12.13;;;6.95;;
70126;SDS011;57491;42.694;23.314;2023-12-04T04:37:25;14.73;;;6.10;;
70126;SDS011;57491;42.694;23.314;2023-12-04T04:39:54;9.88;;;5.93;;
70126;SDS011;57491;42.694;23.314;2023-12-04T04:42:21;9.10;;;4.57;;
70126;SDS011;57491;42.694;23.314;2023-12-04T04:47:16;9.40;;;5.05;;
70126;SDS011;57491;42.694;23.314;2023-12-04T04:49:43;13.23;;;6.45;;
70126;SDS011;57491;42.694;23.314;2023-12-04T04:52:11;10.52;;;6.60;;
70126;SDS011;57491;42.694;23.314;2023-12-04T04:54:38;8.85;;;5.88;;
70126;SDS011;57491;42.694;23.314;2023-12-04T04:57:07;11.18;;;6.03;;
70126;SDS011;57491;42.694;23.314;2023-12-04T04:59:34;10.07;;;5.93;;
70126;SDS011;57491;42.694;23.314;2023-12-04T05:02:01;9.68;;;5.53;;
70126;SDS011;57491;42.694;23.314;2023-12-04T05:04:29;9.60;;;5.25;;
70126;SDS011;57491;42.694;23.314;2023-12-04T05:06:56;10.05;;;5.93;;
70126;SDS011;57491;42.694;23.314;2023-12-04T05:09:23;9.68;;;5.80;;
70126;SDS011;57491;42.694;23.314;2023-12-04T05:11:50;8.07;;;5.25;;
70126;SDS011;57491;42.694;23.314;2023-12-04T05:14:19;9.55;;;5.85;;
70126;SDS011;57491;42.694;23.314;2023-12-04T05:16:46;10.13;;;6.30;;
70126;SDS011;57491;42.694;23.314;2023-12-04T05:19:13;13.15;;;6.10;;
70126;SDS011;57491;42.694;23.314;2023-12-04T05:21:41;13.02;;;6.40;;
70126;SDS011;57491;42.694;23.314;2023-12-04T05:24:08;9.87;;;6.57;;
70126;SDS011;57491;42.694;23.314;2023-12-04T05:26:35;9.95;;;5.85;;
70126;SDS011;57491;42.694;23.314;2023-12-04T05:29:03;10.90;;;6.10;;
70126;SDS011;57491;42.694;23.314;2023-12-04T05:31:32;10.45;;;6.13;;
70126;SDS011;57491;42.694;23.314;2023-12-04T05:33:59;11.85;;;7.00;;
70126;SDS011;57491;42.694;23.314;2023-12-04T05:36:27;10.77;;;6.00;;
70126;SDS011;57491;42.694;23.314;2023-12-04T05:38:54;13.48;;;6.97;;
70126;SDS011;57491;42.694;23.314;2023-12-04T05:43:49;13.90;;;5.93;;
70126;SDS011;57491;42.694;23.314;2023-12-04T05:46:16;9.90;;;4.80;;
70126;SDS011;57491;42.694;23.314;2023-12-04T05:48:45;12.30;;;5.55;;
70126;SDS011;57491;42.694;23.314;2023-12-04T05:51:12;10.30;;;5.10;;
70126;SDS011;57491;42.694;23.314;2023-12-04T05:53:40;11.43;;;6.10;;
70126;SDS011;57491;42.694;23.314;2023-12-04T05:56:08;13.30;;;6.55;;
70126;SDS011;57491;42.694;23.314;2023-12-04T05:58:36;10.77;;;6.55;;
70126;SDS011;57491;42.694;23.314;2023-12-04T06:01:03;13.55;;;6.40;;
70126;SDS011;57491;42.694;23.314;2023-12-04T06:03:32;12.95;;;7.20;;
70126;SDS011;57491;42.694;23.314;2023-12-04T06:06:00;11.48;;;7.13;;
70126;SDS011;57491;42.694;23.314;2023-12-04T06:08:27;12.68;;;7.50;;
70126;SDS011;57491;42.694;23.314;2023-12-04T06:10:55;14.93;;;6.80;;
70126;SDS011;57491;42.694;23.314;2023-12-04T06:13:23;16.23;;;7.38;;
70126;SDS011;57491;42.694;23.314;2023-12-04T06:15:50;11.97;;;7.47;;
70126;SDS011;57491;42.694;23.314;2023-12-04T06:18:18;12.32;;;7.05;;
70126;SDS011;57491;42.694;23.314;2023-12-04T06:20:46;13.30;;;7.13;;
70126;SDS011;57491;42.694;23.314;2023-12-04T06:23:14;12.75;;;6.60;;
70126;SDS011;57491;42.694;23.314;2023-12-04T06:25:43;12.00;;;7.45;;
70126;SDS011;57491;42.694;23.314;2023-12-04T06:28:12;14.40;;;7.20;;
70126;SDS011;57491;42.694;23.314;2023-12-04T06:30:40;13.10;;;7.20;;
70126;SDS011;57491;42.694;23.314;2023-12-04T06:33:08;15.07;;;7.40;;
70126;SDS011;57491;42.694;23.314;2023-12-04T06:35:36;9.95;;;6.07;;
70126;SDS011;57491;42.694;23.314;2023-12-04T06:38:05;13.52;;;6.60;;
70126;SDS011;57491;42.694;23.314;2023-12-04T06:40:35;12.20;;;6.18;;
70126;SDS011;57491;42.694;23.314;2023-12-04T06:43:04;12.45;;;6.95;;
70126;SDS011;57491;42.694;23.314;2023-12-04T06:45:33;12.93;;;6.82;;
70126;SDS011;57491;42.694;23.314;2023-12-04T06:48:01;8.45;;;5.72;;
70126;SDS011;57491;42.694;23.314;2023-12-04T06:50:28;14.95;;;6.95;;
70126;SDS011;57491;42.694;23.314;2023-12-04T06:52:55;16.30;;;7.65;;
70126;SDS011;57491;42.694;23.314;2023-12-04T06:55:23;10.75;;;6.82;;
70126;SDS011;57491;42.694;23.314;2023-12-04T06:57:52;13.63;;;6.53;;
70126;SDS011;57491;42.694;23.314;2023-12-04T07:00:19;11.55;;;6.80;;
70126;SDS011;57491;42.694;23.314;2023-12-04T07:02:47;11.63;;;7.15;;
70126;SDS011;57491;42.694;23.314;2023-12-04T07:05:15;11.68;;;7.32;;
70126;SDS011;57491;42.694;23.314;2023-12-04T07:07:42;11.82;;;5.88;;
70126;SDS011;57491;42.694;23.314;2023-12-04T07:10:09;11.57;;;7.28;;
70126;SDS011;57491;42.694;23.314;2023-12-04T07:12:40;16.08;;;7.40;;
70126;SDS011;57491;42.694;23.314;2023-12-04T07:15:09;12.95;;;7.60;;
70126;SDS011;57491;42.694;23.314;2023-12-04T07:17:37;13.05;;;7.22;;
70126;SDS011;57491;42.694;23.314;2023-12-04T07:20:05;10.85;;;7.03;;
70126;SDS011;57491;42.694;23.314;2023-12-04T07:22:34;10.00;;;5.72;;
70126;SDS011;57491;42.694;23.314;2023-12-04T07:25:01;11.73;;;6.47;;
70126;SDS011;57491;42.694;23.314;2023-12-04T07:27:28;12.50;;;7.23;;
70126;SDS011;57491;42.694;23.314;2023-12-04T07:29:56;9.73;;;6.22;;
70126;SDS011;57491;42.694;23.314;2023-12-04T07:32:25;13.63;;;6.38;;
70126;SDS011;57491;42.694;23.314;2023-12-04T07:34:52;9.23;;;5.68;;
70126;SDS011;57491;42.694;23.314;2023-12-04T07:37:19;8.97;;;5.77;;
70126;SDS011;57491;42.694;23.314;2023-12-04T07:39:47;11.65;;;6.68;;
70126;SDS011;57491;42.694;23.314;2023-12-04T07:42:14;11.02;;;6.85;;
70126;SDS011;57491;42.694;23.314;2023-12-04T07:44:41;8.85;;;5.07;;
70126;SDS011;57491;42.694;23.314;2023-12-04T07:47:09;10.93;;;6.15;;
70126;SDS011;57491;42.694;23.314;2023-12-04T07:49:37;12.48;;;6.03;;
70126;SDS011;57491;42.694;23.314;2023-12-04T07:52:05;10.95;;;7.10;;
70126;SDS011;57491;42.694;23.314;2023-12-04T07:54:32;10.32;;;6.00;;
70126;SDS011;57491;42.694;23.314;2023-12-04T07:59:27;10.88;;;6.32;;
70126;SDS011;57491;42.694;23.314;2023-12-04T08:02:03;9.67;;;6.00;;
70126;SDS011;57491;42.694;23.314;2023-12-04T08:04:31;9.98;;;5.97;;
70126;SDS011;57491;42.694;23.314;2023-12-04T08:06:59;8.30;;;4.90;;
70126;SDS011;57491;42.694;23.314;2023-12-04T08:09:27;7.63;;;5.22;;
70126;SDS011;57491;42.694;23.314;2023-12-04T08:11:54;7.07;;;5.50;;
70126;SDS011;57491;42.694;23.314;2023-12-04T08:14:21;8.68;;;5.97;;
70126;SDS011;57491;42.694;23.314;2023-12-04T08:16:48;6.30;;;4.83;;
70126;SDS011;57491;42.694;23.314;2023-12-04T08:19:16;5.33;;;3.83;;
70126;SDS011;57491;42.694;23.314;2023-12-04T08:21:43;6.45;;;4.65;;
70126;SDS011;57491;42.694;23.314;2023-12-04T08:26:42;6.50;;;4.50;;
70126;SDS011;57491;42.694;23.314;2023-12-04T08:29:09;7.80;;;4.00;;
70126;SDS011;57491;42.694;23.314;2023-12-04T08:31:37;8.52;;;4.28;;
70126;SDS011;57491;42.694;23.314;2023-12-04T08:34:04;7.73;;;4.23;;
70126;SDS011;57491;42.694;23.314;2023-12-04T08:36:31;7.10;;;4.70;;
70126;SDS011;57491;42.694;23.314;2023-12-04T08:38:58;8.37;;;5.70;;
70126;SDS011;57491;42.694;23.314;2023-12-04T08:41:27;6.30;;;4.30;;
70126;SDS011;57491;42.694;23.314;2023-12-04T08:43:54;11.90;;;5.45;;
70126;SDS011;57491;42.694;23.314;2023-12-04T08:46:22;6.13;;;4.13;;
70126;SDS011;57491;42.694;23.314;2023-12-04T08:48:49;8.30;;;5.20;;
70126;SDS011;57491;42.694;23.314;2023-12-04T08:51:16;9.40;;;4.93;;
70126;SDS011;57491;42.694;23.314;2023-12-04T08:53:44;11.05;;;6.22;;
70126;SDS011;57491;42.694;23.314;2023-12-04T08:56:11;9.40;;;4.40;;
70126;SDS011;57491;42.694;23.314;2023-12-04T08:58:40;10.07;;;4.83;;
70126;SDS011;57491;42.694;23.314;2023-12-04T09:01:07;7.22;;;4.63;;
70126;SDS011;57491;42.694;23.314;2023-12-04T09:03:34;5.95;;;4.30;;
70126;SDS011;57491;42.694;23.314;2023-12-04T09:06:02;7.38;;;4.50;;
70126;SDS011;57491;42.694;23.314;2023-12-04T09:08:29;5.75;;;4.47;;
70126;SDS011;57491;42.694;23.314;2023-12-04T09:10:58;7.18;;;5.30;;
70126;SDS011;57491;42.694;23.314;2023-12-04T09:13:25;9.80;;;6.03;;
70126;SDS011;57491;42.694;23.314;2023-12-04T09:15:54;11.70;;;6.22;;
70126;SDS011;57491;42.694;23.314;2023-12-04T09:18:21;13.35;;;6.78;;
70126;SDS011;57491;42.694;23.314;2023-12-04T09:20:48;21.95;;;8.23;;
70126;SDS011;57491;42.694;23.314;2023-12-04T09:23:16;7.03;;;4.32;;
70126;SDS011;57491;42.694;23.314;2023-12-04T09:25:43;16.08;;;8.30;;
70126;SDS011;57491;42.694;23.314;2023-12-04T09:28:10;12.98;;;6.13;;
70126;SDS011;57491;42.694;23.314;2023-12-04T09:30:39;12.07;;;6.30;;
70126;SDS011;57491;42.694;23.314;2023-12-04T09:33:07;14.07;;;8.18;;
70126;SDS011;57491;42.694;23.314;2023-12-04T09:35:35;10.93;;;5.95;;
70126;SDS011;57491;42.694;23.314;2023-12-04T09:38:02;6.57;;;4.97;;
70126;SDS011;57491;42.694;23.314;2023-12-04T09:40:29;8.63;;;5.05;;
70126;SDS011;57491;42.694;23.314;2023-12-04T09:42:57;6.18;;;4.20;;
70126;SDS011;57491;42.694;23.314;2023-12-04T09:45:24;7.15;;;5.72;;
70126;SDS011;57491;42.694;23.314;2023-12-04T09:47:52;6.70;;;4.55;;
70126;SDS011;57491;42.694;23.314;2023-12-04T09:50:22;8.75;;;5.20;;
70126;SDS011;57491;42.694;23.314;2023-12-04T09:52:49;5.97;;;4.57;;
70126;SDS011;57491;42.694;23.314;2023-12-04T09:55:17;5.93;;;4.13;;
70126;SDS011;57491;42.694;23.314;2023-12-04T09:57:45;8.63;;;4.72;;
70126;SDS011;57491;42.694;23.314;2023-12-04T10:00:14;6.07;;;4.38;;
70126;SDS011;57491;42.694;23.314;2023-12-04T10:02:42;5.60;;;4.25;;
70126;SDS011;57491;42.694;23.314;2023-12-04T10:05:09;6.90;;;4.25;;
70126;SDS011;57491;42.694;23.314;2023-12-04T10:07:38;6.80;;;5.13;;
70126;SDS011;57491;42.694;23.314;2023-12-04T10:10:05;5.68;;;4.80;;
70126;SDS011;57491;42.694;23.314;2023-12-04T10:12:33;6.10;;;4.57;;
70126;SDS011;57491;42.694;23.314;2023-12-04T10:15:05;5.95;;;4.65;;
70126;SDS011;57491;42.694;23.314;2023-12-04T10:17:33;6.80;;;5.35;;
70126;SDS011;57491;42.694;23.314;2023-12-04T10:20:06;13.93;;;8.00;;
70126;SDS011;57491;42.694;23.314;2023-12-04T10:22:39;16.77;;;6.32;;
70126;SDS011;57491;42.694;23.314;2023-12-04T10:30:25;6.10;;;5.38;;
70126;SDS011;57491;42.694;23.314;2023-12-04T10:32:54;10.10;;;6.28;;
70126;SDS011;57491;42.694;23.314;2023-12-04T10:35:21;5.97;;;5.38;;
70126;SDS011;57491;42.694;23.314;2023-12-04T10:40:23;5.57;;;5.00;;
70126;SDS011;57491;42.694;23.314;2023-12-04T10:42:50;5.75;;;5.13;;
70126;SDS011;57491;42.694;23.314;2023-12-04T10:45:17;7.32;;;5.85;;
70126;SDS011;57491;42.694;23.314;2023-12-04T10:47:48;8.23;;;5.20;;
70126;SDS011;57491;42.694;23.314;2023-12-04T10:50:17;6.28;;;5.05;;
70126;SDS011;57491;42.694;23.314;2023-12-04T10:52:44;7.38;;;6.32;;
70126;SDS011;57491;42.694;23.314;2023-12-04T10:55:15;8.88;;;6.22;;
70126;SDS011;57491;42.694;23.314;2023-12-04T10:57:43;8.38;;;6.30;;
70126;SDS011;57491;42.694;23.314;2023-12-04T11:00:12;9.65;;;6.65;;
70126;SDS011;57491;42.694;23.314;2023-12-04T11:02:42;9.45;;;6.70;;
70126;SDS011;57491;42.694;23.314;2023-12-04T11:05:14;9.77;;;6.35;;
70126;SDS011;57491;42.694;23.314;2023-12-04T11:07:47;8.35;;;6.20;;
70126;SDS011;57491;42.694;23.314;2023-12-04T11:10:20;7.10;;;6.35;;
70126;SDS011;57491;42.694;23.314;2023-12-04T11:12:49;6.40;;;5.80;;
70126;SDS011;57491;42.694;23.314;2023-12-04T11:15:21;8.07;;;6.10;;
70126;SDS011;57491;42.694;23.314;2023-12-04T11:17:51;12.20;;;9.68;;
70126;SDS011;57491;42.694;23.314;2023-12-04T11:20:26;7.07;;;6.38;;
70126;SDS011;57491;42.694;23.314;2023-12-04T11:22:56;6.57;;;5.90;;
70126;SDS011;57491;42.694;23.314;2023-12-04T11:25:26;8.50;;;7.68;;
70126;SDS011;57491;42.694;23.314;2023-12-04T11:27:54;11.23;;;9.27;;
70126;SDS011;57491;42.694;23.314;2023-12-04T11:30:23;8.05;;;6.72;;
70126;SDS011;57491;42.694;23.314;2023-12-04T11:32:51;7.15;;;6.45;;
70126;SDS011;57491;42.694;23.314;2023-12-04T11:35:21;7.47;;;6.70;;
70126;SDS011;57491;42.694;23.314;2023-12-04T11:37:53;8.07;;;6.05;;
70126;SDS011;57491;42.694;23.314;2023-12-04T11:40:20;8.25;;;7.10;;
70126;SDS011;57491;42.694;23.314;2023-12-04T11:45:18;12.18;;;9.30;;
70126;SDS011;57491;42.694;23.314;2023-12-04T11:47:49;9.18;;;7.50;;
70126;SDS011;57491;42.694;23.314;2023-12-04T11:50:18;8.43;;;7.28;;
70126;SDS011;57491;42.694;23.314;2023-12-04T11:52:46;7.80;;;6.82;;
70126;SDS011;57491;42.694;23.314;2023-12-04T11:55:18;10.68;;;9.23;;
70126;SDS011;57491;42.694;23.314;2023-12-04T11:57:50;11.40;;;8.80;;
70126;SDS011;57491;42.694;23.314;2023-12-04T12:00:22;10.50;;;7.57;;
70126;SDS011;57491;42.694;23.314;2023-12-04T12:03:04;7.90;;;7.10;;
70126;SDS011;57491;42.694;23.314;2023-12-04T12:05:35;11.73;;;8.15;;
70126;SDS011;57491;42.694;23.314;2023-12-04T12:08:04;8.80;;;7.82;;
70126;SDS011;57491;42.694;23.314;2023-12-04T12:10:33;13.57;;;8.68;;
70126;SDS011;57491;42.694;23.314;2023-12-04T12:13:02;12.13;;;8.88;;
70126;SDS011;57491;42.694;23.314;2023-12-04T12:15:30;11.38;;;9.40;;
70126;SDS011;57491;42.694;23.314;2023-12-04T12:17:59;11.20;;;9.15;;
70126;SDS011;57491;42.694;23.314;2023-12-04T12:22:53;11.75;;;9.05;;
70126;SDS011;57491;42.694;23.314;2023-12-04T12:27:52;11.23;;;8.57;;
70126;SDS011;57491;42.694;23.314;2023-12-04T12:30:21;12.38;;;9.35;;
70126;SDS011;57491;42.694;23.314;2023-12-04T12:32:49;11.52;;;9.25;;
70126;SDS011;57491;42.694;23.314;2023-12-04T12:35:17;9.55;;;8.60;;
70126;SDS011;57491;42.694;23.314;2023-12-04T12:37:44;10.20;;;9.10;;
70126;SDS011;57491;42.694;23.314;2023-12-04T12:40:12;9.63;;;8.63;;
70126;SDS011;57491;42.694;23.314;2023-12-04T12:42:40;11.82;;;9.60;;
70126;SDS011;57491;42.694;23.314;2023-12-04T12:45:09;9.32;;;8.43;;
70126;SDS011;57491;42.694;23.314;2023-12-04T12:47:39;11.23;;;9.18;;
70126;SDS011;57491;42.694;23.314;2023-12-04T12:50:07;10.60;;;9.02;;
70126;SDS011;57491;42.694;23.314;2023-12-04T12:52:38;10.63;;;8.85;;
70126;SDS011;57491;42.694;23.314;2023-12-04T12:55:07;10.20;;;7.97;;
70126;SDS011;57491;42.694;23.314;2023-12-04T12:57:35;9.98;;;8.32;;
70126;SDS011;57491;42.694;23.314;2023-12-04T13:00:03;9.50;;;8.10;;
70126;SDS011;57491;42.694;23.314;2023-12-04T13:02:33;10.63;;;8.75;;
70126;SDS011;57491;42.694;23.314;2023-12-04T13:05:05;16.95;;;12.57;;
70126;SDS011;57491;42.694;23.314;2023-12-04T13:07:33;17.90;;;13.02;;
70126;SDS011;57491;42.694;23.314;2023-12-04T13:12:30;21.88;;;14.88;;
70126;SDS011;57491;42.694;23.314;2023-12-04T13:22:20;17.70;;;12.63;;
70126;SDS011;57491;42.694;23.314;2023-12-04T13:24:48;19.83;;;10.52;;
70126;SDS011;57491;42.694;23.314;2023-12-04T13:27:15;16.90;;;10.63;;
70126;SDS011;57491;42.694;23.314;2023-12-04T13:29:42;14.65;;;11.05;;
70126;SDS011;57491;42.694;23.314;2023-12-04T13:32:09;11.93;;;10.27;;
70126;SDS011;57491;42.694;23.314;2023-12-04T13:34:37;12.07;;;10.02;;
70126;SDS011;57491;42.694;23.314;2023-12-04T13:37:04;15.55;;;10.85;;
70126;SDS011;57491;42.694;23.314;2023-12-04T13:39:33;15.52;;;10.80;;
70126;SDS011;57491;42.694;23.314;2023-12-04T13:42:13;13.52;;;10.63;;
70126;SDS011;57491;42.694;23.314;2023-12-04T13:44:58;17.05;;;10.85;;
70126;SDS011;57491;42.694;23.314;2023-12-04T13:47:26;14.18;;;11.02;;
70126;SDS011;57491;42.694;23.314;2023-12-04T13:49:53;16.60;;;10.60;;
70126;SDS011;57491;42.694;23.314;2023-12-04T13:52:21;15.25;;;10.15;;
70126;SDS011;57491;42.694;23.314;2023-12-04T13:54:50;14.48;;;9.48;;
70126;SDS011;57491;42.694;23.314;2023-12-04T13:57:20;16.60;;;9.90;;
70126;SDS011;57491;42.694;23.314;2023-12-04T13:59:53;12.60;;;9.25;;
70126;SDS011;57491;42.694;23.314;2023-12-04T14:02:20;16.52;;;11.73;;
70126;SDS011;57491;42.694;23.314;2023-12-04T14:04:47;14.77;;;11.15;;
70126;SDS011;57491;42.694;23.314;2023-12-04T14:07:15;19.58;;;11.48;;
70126;SDS011;57491;42.694;23.314;2023-12-04T14:09:43;21.10;;;10.85;;
70126;SDS011;57491;42.694;23.314;2023-12-04T14:12:13;16.55;;;11.23;;
70126;SDS011;57491;42.694;23.314;2023-12-04T14:14:41;16.77;;;12.63;;
70126;SDS011;57491;42.694;23.314;2023-12-04T14:17:08;20.55;;;11.10;;
70126;SDS011;57491;42.694;23.314;2023-12-04T14:19:37;16.67;;;11.05;;
70126;SDS011;57491;42.694;23.314;2023-12-04T14:22:06;24.77;;;13.20;;
70126;SDS011;57491;42.694;23.314;2023-12-04T14:24:33;20.77;;;11.48;;
70126;SDS011;57491;42.694;23.314;2023-12-04T14:27:01;24.15;;;10.85;;
70126;SDS011;57491;42.694;23.314;2023-12-04T14:31:57;13.73;;;9.32;;
70126;SDS011;57491;42.694;23.314;2023-12-04T14:34:24;15.63;;;9.53;;
70126;SDS011;57491;42.694;23.314;2023-12-04T14:36:51;16.07;;;8.90;;
70126;SDS011;57491;42.694;23.314;2023-12-04T14:39:19;15.87;;;9.53;;
70126;SDS011;57491;42.694;23.314;2023-12-04T14:41:46;18.55;;;10.90;;
70126;SDS011;57491;42.694;23.314;2023-12-04T14:44:13;14.90;;;8.52;;
70126;SDS011;57491;42.694;23.314;2023-12-04T14:46:42;16.83;;;8.43;;
70126;SDS011;57491;42.694;23.314;2023-12-04T14:49:10;13.43;;;8.70;;
70126;SDS011;57491;42.694;23.314;2023-12-04T14:51:38;16.33;;;8.52;;
70126;SDS011;57491;42.694;23.314;2023-12-04T14:54:05;14.88;;;7.85;;
70126;SDS011;57491;42.694;23.314;2023-12-04T14:56:46;16.33;;;9.68;;
70126;SDS011;57491;42.694;23.314;2023-12-04T14:59:28;14.70;;;9.65;;
70126;SDS011;57491;42.694;23.314;2023-12-04T15:02:11;17.52;;;8.82;;
70126;SDS011;57491;42.694;23.314;2023-12-04T15:05:26;20.27;;;9.95;;
70126;SDS011;57491;42.694;23.314;2023-12-04T15:08:30;18.40;;;9.45;;
70126;SDS011;57491;42.694;23.314;2023-12-04T15:11:17;20.23;;;10.50;;
70126;SDS011;57491;42.694;23.314;2023-12-04T15:14:09;18.30;;;8.73;;
70126;SDS011;57491;42.694;23.314;2023-12-04T15:16:46;15.40;;;8.70;;
70126;SDS011;57491;42.694;23.314;2023-12-04T15:19:20;18.63;;;10.50;;
70126;SDS011;57491;42.694;23.314;2023-12-04T15:22:00;16.10;;;9.75;;